Time;durP1;ratioP1;P1;durP2;ratioP2;P2;SDS_P1;SDS_P2;PMS_P1;PMS_P2;Temp;Humidity;BMP_temperature;BMP_pressure;BME280_temperature;BME280_humidity;BME280_pressure;Samples;Min_cycle;Max_cycle;Signal;HPM_P1;HPM_P2
2023/01/01 00:01:19;;;;;;;29.42;21.65;;;13.90;99.90;;;;;;4909723;29;20127;-83
2023/01/01 00:03:52;;;;;;;33.08;22.80;;;13.30;99.90;;;;;;4910661;29;20122;-83
2023/01/01 00:06:18;;;;;;;31.88;21.40;;;13.90;99.90;;;;;;4907139;29;20052;-84
2023/01/01 00:08:44;;;;;;;31.60;21.40;;;13.20;99.90;;;;;;4908511;29;20052;-84
2023/01/01 00:11:12;;;;;;;30.00;19.55;;;13.10;99.90;;;;;;4908752;29;20048;-84
2023/01/01 00:13:59;;;;;;;24.30;18.15;;;13.20;99.90;;;;;;4895076;29;20040;-85
2023/01/01 00:16:28;;;;;;;30.95;16.70;;;13.10;99.90;;;;;;4877379;29;20052;-84
2023/01/01 00:18:54;;;;;;;25.10;15.30;;;13.00;99.90;;;;;;4920933;29;20064;-83
2023/01/01 00:21:20;;;;;;;23.52;16.02;;;13.00;99.90;;;;;;4912975;29;20079;-84
2023/01/01 00:23:57;;;;;;;23.85;15.88;;;13.00;99.90;;;;;;4907217;29;20079;-84
2023/01/01 00:26:23;;;;;;;28.70;18.63;;;12.90;99.90;;;;;;4898470;29;20048;-84
2023/01/01 00:28:49;;;;;;;28.33;19.33;;;12.90;99.90;;;;;;4916308;29;20055;-84
2023/01/01 00:31:18;;;;;;;32.47;21.02;;;12.90;99.90;;;;;;4910747;29;20032;-84
2023/01/01 00:34:03;;;;;;;33.15;20.83;;;12.90;99.90;;;;;;4910748;29;20058;-84
2023/01/01 00:36:29;;;;;;;33.45;20.30;;;12.90;99.90;;;;;;4894303;29;20048;-84
2023/01/01 00:39:15;;;;;;;29.70;19.55;;;12.90;99.90;;;;;;4906244;29;20042;-84
2023/01/01 00:41:40;;;;;;;;;;;12.90;99.90;;;;;;4908924;29;20040;-84
2023/01/01 00:44:07;;;;;;;30.20;20.60;;;13.00;99.90;;;;;;4892854;29;19994;-87
2023/01/01 00:46:45;;;;;;;25.67;20.25;;;13.00;99.90;;;;;;4906512;29;20051;-84
2023/01/01 00:49:11;;;;;;;28.15;21.17;;;12.90;99.90;;;;;;4919327;29;20055;-84
2023/01/01 00:51:41;;;;;;;33.42;21.48;;;13.10;99.90;;;;;;4929584;29;20085;-84
2023/01/01 00:54:07;;;;;;;32.28;21.38;;;13.10;99.90;;;;;;4910368;29;20044;-84
2023/01/01 00:56:34;;;;;;;31.38;21.58;;;13.10;99.90;;;;;;4904534;29;20043;-84
2023/01/01 00:59:18;;;;;;;33.22;22.92;;;13.20;99.90;;;;;;4910913;29;20052;-85
2023/01/01 01:01:44;;;;;;;26.88;22.05;;;13.20;99.90;;;;;;4916820;29;20058;-84
2023/01/01 01:04:33;;;;;;;33.42;22.05;;;13.20;99.90;;;;;;4909685;29;20054;-84
2023/01/01 01:07:20;;;;;;;34.05;23.42;;;13.20;99.90;;;;;;4911515;29;20551;-85
2023/01/01 01:09:46;;;;;;;31.35;23.88;;;13.10;99.90;;;;;;4907033;29;20055;-84
2023/01/01 01:12:12;;;;;;;26.63;18.73;;;13.20;99.90;;;;;;4912226;29;20044;-84
2023/01/01 01:15:00;;;;;;;31.17;20.40;;;13.20;99.90;;;;;;4904774;29;20047;-84
2023/01/01 01:17:26;;;;;;;31.45;20.90;;;13.40;99.90;;;;;;4910000;29;20155;-85
2023/01/01 01:19:52;;;;;;;29.90;21.48;;;13.30;99.90;;;;;;4909537;29;20567;-84
2023/01/01 01:22:30;;;;;;;35.47;24.10;;;13.30;99.90;;;;;;4910884;29;20055;-84
2023/01/01 01:24:57;;;;;;;30.00;20.92;;;13.30;99.90;;;;;;4907284;29;20048;-84
2023/01/01 01:27:23;;;;;;;29.33;21.80;;;13.30;99.90;;;;;;4891471;29;20040;-84
2023/01/01 01:29:49;;;;;;;29.63;21.00;;;13.30;99.90;;;;;;4911398;29;20099;-84
2023/01/01 01:32:17;;;;;;;31.63;20.75;;;13.30;99.90;;;;;;4910151;29;20055;-85
2023/01/01 01:34:43;;;;;;;29.42;21.02;;;13.30;99.90;;;;;;4909739;29;20054;-84
2023/01/01 01:37:10;;;;;;;26.85;19.15;;;13.30;99.90;;;;;;4909407;29;20131;-84
2023/01/01 01:39:37;;;;;;;32.50;21.55;;;13.20;99.90;;;;;;4909484;29;20395;-84
2023/01/01 01:42:02;;;;;;;27.67;19.70;;;13.20;99.90;;;;;;4912141;29;20042;-84
2023/01/01 01:44:50;;;;;;;29.85;19.10;;;13.20;99.90;;;;;;4907194;29;20547;-84
2023/01/01 01:47:24;;;;;;;32.33;20.58;;;13.20;99.90;;;;;;4909537;29;20047;-84
2023/01/01 01:50:00;;;;;;;33.67;20.25;;;13.30;99.90;;;;;;4911439;29;20047;-85
2023/01/01 01:52:29;;;;;;;33.65;20.83;;;13.70;99.90;;;;;;4900140;29;20040;-84
2023/01/01 01:54:55;;;;;;;27.58;19.50;;;13.20;99.90;;;;;;4911900;29;20495;-85
2023/01/01 01:57:22;;;;;;;33.83;19.85;;;13.20;99.90;;;;;;4915686;29;20048;-84
2023/01/01 01:59:54;;;;;;;24.95;19.65;;;13.30;99.90;;;;;;4913685;29;20087;-85
2023/01/01 02:03:00;;;;;;;27.38;18.88;;;13.20;99.90;;;;;;4926058;29;20048;-85
2023/01/01 02:05:27;;;;;;;29.07;18.27;;;13.10;99.90;;;;;;4913538;29;20060;-85
2023/01/01 02:07:54;;;;;;;27.63;16.52;;;13.10;99.90;;;;;;4897939;29;20339;-84
2023/01/01 02:10:22;;;;;;;29.65;16.73;;;13.50;99.90;;;;;;4913270;29;20047;-84
2023/01/01 02:12:50;;;;;;;27.23;17.35;;;13.40;99.90;;;;;;4911253;29;20082;-84
2023/01/01 02:15:16;;;;;;;26.80;15.73;;;13.50;99.90;;;;;;4910996;29;20044;-84
2023/01/01 02:18:00;;;;;;;20.35;15.30;;;13.20;99.90;;;;;;4913870;29;20091;-84
2023/01/01 02:20:31;;;;;;;23.33;14.60;;;13.90;99.90;;;;;;4914669;29;20040;-84
2023/01/01 02:23:13;;;;;;;22.27;14.23;;;13.20;99.90;;;;;;4911975;29;20040;-84
2023/01/01 02:26:22;;;;;;;27.17;13.50;;;13.20;99.90;;;;;;4918259;29;20043;-84
2023/01/01 02:29:18;;;;;;;24.80;12.82;;;13.20;99.90;;;;;;4901089;29;20439;-84
2023/01/01 02:31:54;;;;;;;17.85;11.35;;;13.30;99.90;;;;;;4913060;29;20582;-84
2023/01/01 02:34:27;;;;;;;22.27;11.80;;;13.40;99.90;;;;;;4911800;29;20157;-84
2023/01/01 02:36:56;;;;;;;18.00;10.27;;;13.20;99.90;;;;;;4911227;29;20055;-84
2023/01/01 02:39:26;;;;;;;17.00;9.68;;;13.20;99.90;;;;;;4911285;29;20051;-84
2023/01/01 02:41:54;;;;;;;20.08;9.93;;;13.20;99.90;;;;;;4911742;29;20776;-84
2023/01/01 02:44:27;;;;;;;16.65;9.52;;;13.40;99.90;;;;;;4912446;29;20111;-85
2023/01/01 02:46:53;;;;;;;15.95;8.57;;;13.30;99.90;;;;;;4910998;29;20064;-84
2023/01/01 02:49:19;;;;;;;15.32;8.60;;;13.10;99.90;;;;;;4911889;29;20072;-84
2023/01/01 02:51:53;;;;;;;20.05;8.43;;;13.40;99.90;;;;;;4911384;29;20297;-84
2023/01/01 02:54:32;;;;;;;17.40;7.90;;;13.20;99.90;;;;;;4910272;29;20055;-84
2023/01/01 02:57:17;;;;;;;10.98;6.75;;;13.40;99.90;;;;;;4895613;29;20055;-84
2023/01/01 03:03:16;;;;;;;14.23;7.72;;;13.20;99.90;;;;;;4912278;29;20048;-85
2023/01/01 03:06:22;;;;;;;18.33;6.45;;;13.30;99.90;;;;;;4910893;29;20690;-84
2023/01/01 03:09:21;;;;;;;13.17;6.03;;;13.20;99.90;;;;;;4894969;29;20802;-84
2023/01/01 03:11:56;;;;;;;12.88;5.20;;;13.30;99.90;;;;;;4908944;29;20300;-84
2023/01/01 03:14:38;;;;;;;16.60;4.63;;;13.90;99.90;;;;;;4916384;29;20970;-84
2023/01/01 03:17:26;;;;;;;17.38;5.10;;;13.40;99.90;;;;;;4910688;29;20063;-84
2023/01/01 03:19:55;;;;;;;14.45;4.90;;;13.40;99.90;;;;;;4912203;29;20053;-84
2023/01/01 03:22:29;;;;;;;10.65;3.83;;;13.50;99.90;;;;;;4913550;29;20048;-85
2023/01/01 03:25:05;;;;;;;9.88;4.32;;;13.50;99.90;;;;;;4911460;29;20044;-84
2023/01/01 03:27:33;;;;;;;;;;;13.60;99.90;;;;;;4897642;29;20083;-84
2023/01/01 03:30:06;;;;;;;11.18;2.75;;;13.60;99.90;;;;;;4911177;29;20290;-84
2023/01/01 03:35:37;;;;;;;9.25;2.53;;;14.00;99.90;;;;;;4930289;29;20407;-84
2023/01/01 03:38:07;;;;;;;11.85;2.67;;;13.80;99.90;;;;;;4909070;29;20044;-84
2023/01/01 03:40:37;;;;;;;14.45;2.97;;;13.80;99.90;;;;;;4910522;29;20044;-84
2023/01/01 03:43:11;;;;;;;13.00;4.15;;;13.80;99.90;;;;;;4910990;29;20084;-85
2023/01/01 03:45:43;;;;;;;9.30;2.42;;;13.70;99.90;;;;;;4912633;29;20044;-84
2023/01/01 03:48:10;;;;;;;9.15;2.70;;;14.00;99.90;;;;;;4909866;29;20036;-84
2023/01/01 03:51:07;;;;;;;9.13;2.42;;;13.80;99.90;;;;;;4927971;29;20059;-84
2023/01/01 03:53:39;;;;;;;9.23;2.53;;;13.80;99.90;;;;;;4910411;29;20044;-84
2023/01/01 03:56:35;;;;;;;14.02;2.80;;;13.80;99.90;;;;;;4911029;29;20040;-84
2023/01/01 03:59:18;;;;;;;9.65;2.42;;;13.80;99.90;;;;;;4912437;29;20036;-84
2023/01/01 04:01:57;;;;;;;8.45;2.60;;;13.90;99.90;;;;;;4910382;29;20036;-85
2023/01/01 04:04:27;;;;;;;9.30;2.20;;;13.90;99.90;;;;;;4895363;29;20135;-85
2023/01/01 04:06:54;;;;;;;8.07;2.45;;;14.00;99.90;;;;;;4914316;29;20728;-84
2023/01/01 04:09:42;;;;;;;5.80;2.03;;;13.80;99.90;;;;;;4895880;29;20043;-84
2023/01/01 04:12:09;;;;;;;12.07;2.95;;;13.80;99.90;;;;;;4918405;29;20048;-84
2023/01/01 04:14:50;;;;;;;10.13;2.35;;;14.50;99.90;;;;;;4913954;29;20098;-84
2023/01/01 04:17:17;;;;;;;14.25;2.55;;;13.90;99.90;;;;;;4894700;29;20036;-84
2023/01/01 04:19:43;;;;;;;10.48;2.25;;;13.90;99.90;;;;;;4907828;29;20055;-84
2023/01/01 04:22:09;;;;;;;7.20;2.47;;;14.20;99.90;;;;;;4893629;29;20040;-84
2023/01/01 04:24:34;;;;;;;9.90;1.75;;;13.90;99.90;;;;;;4895862;29;20037;-84
2023/01/01 04:27:00;;;;;;;7.55;1.70;;;13.80;99.90;;;;;;4911508;29;20040;-84
2023/01/01 04:29:26;;;;;;;11.15;2.47;;;13.90;99.90;;;;;;4913122;29;20040;-84
2023/01/01 04:31:51;;;;;;;13.77;2.53;;;13.80;99.90;;;;;;4909360;29;20044;-84
2023/01/01 04:34:17;;;;;;;8.32;1.80;;;14.20;99.90;;;;;;4912375;29;20048;-84
2023/01/01 04:36:43;;;;;;;10.65;2.08;;;13.60;99.90;;;;;;4910389;29;20384;-84
2023/01/01 04:39:09;;;;;;;10.25;2.63;;;13.50;99.90;;;;;;4908686;29;20038;-84
2023/01/01 04:41:45;;;;;;;6.57;1.90;;;13.30;99.90;;;;;;4909566;29;20043;-83
2023/01/01 04:44:11;;;;;;;10.15;2.88;;;13.30;99.90;;;;;;4910157;29;20040;-83
2023/01/01 04:46:37;;;;;;;9.00;1.88;;;13.30;99.90;;;;;;4908839;29;20059;-83
2023/01/01 04:49:02;;;;;;;12.32;3.03;;;13.70;99.90;;;;;;4909206;29;20072;-84
2023/01/01 04:51:28;;;;;;;8.20;2.03;;;13.20;99.90;;;;;;4892881;29;20047;-84
2023/01/01 04:54:12;;;;;;;13.18;2.25;;;13.20;99.90;;;;;;4926570;29;20125;-84
2023/01/01 04:56:37;;;;;;;12.82;2.97;;;13.10;99.90;;;;;;4890215;29;20048;-84
2023/01/01 04:59:03;;;;;;;7.00;2.13;;;13.30;99.90;;;;;;4909123;29;20032;-84
2023/01/01 05:01:41;;;;;;;6.40;1.77;;;13.10;99.90;;;;;;4910092;29;20086;-84
2023/01/01 05:04:09;;;;;;;8.70;1.75;;;13.10;99.90;;;;;;4895395;29;20054;-84
2023/01/01 05:06:36;;;;;;;7.53;1.70;;;13.10;99.90;;;;;;4890938;29;20036;-84
2023/01/01 05:09:21;;;;;;;7.45;2.10;;;13.10;99.90;;;;;;4930018;29;20140;-84
2023/01/01 05:11:46;;;;;;;7.53;1.70;;;13.10;99.90;;;;;;4893183;29;20044;-84
2023/01/01 05:14:12;;;;;;;7.35;1.50;;;13.10;99.90;;;;;;4907824;29;20044;-84
2023/01/01 05:16:39;;;;;;;9.70;1.60;;;13.20;99.90;;;;;;4914906;29;20044;-84
2023/01/01 05:19:06;;;;;;;8.43;1.95;;;13.20;99.90;;;;;;4905231;29;20043;-84
2023/01/01 05:21:39;;;;;;;6.43;1.48;;;13.70;99.90;;;;;;4893712;29;20061;-84
2023/01/01 05:24:07;;;;;;;6.40;1.83;;;13.40;99.90;;;;;;4907664;29;20046;-84
2023/01/01 05:26:36;;;;;;;7.60;1.73;;;13.20;99.90;;;;;;4909584;29;20047;-84
2023/01/01 05:29:03;;;;;;;9.68;1.30;;;13.90;99.90;;;;;;4911645;29;20143;-84
2023/01/01 05:31:32;;;;;;;8.15;1.50;;;13.20;99.90;;;;;;4893605;29;20100;-84
2023/01/01 05:33:58;;;;;;;13.32;2.50;;;13.20;99.90;;;;;;4909811;29;20042;-84
2023/01/01 05:36:26;;;;;;;7.10;1.45;;;13.20;99.90;;;;;;4891651;29;20037;-84
2023/01/01 05:38:52;;;;;;;6.25;1.70;;;13.10;99.90;;;;;;4908184;29;20040;-84
2023/01/01 05:41:35;;;;;;;7.63;1.42;;;13.20;99.90;;;;;;4908195;29;20040;-84
2023/01/01 05:44:02;;;;;;;6.55;1.75;;;13.20;99.90;;;;;;4907448;29;20048;-84
2023/01/01 05:46:28;;;;;;;5.65;1.35;;;13.10;99.90;;;;;;4908819;29;20103;-84
2023/01/01 05:48:54;;;;;;;5.93;1.20;;;13.10;99.90;;;;;;4907705;29;20043;-84
2023/01/01 05:51:40;;;;;;;8.10;2.28;;;13.10;99.90;;;;;;4907911;29;20060;-83
2023/01/01 05:54:06;;;;;;;6.10;1.65;;;14.50;99.90;;;;;;4907651;29;20063;-83
2023/01/01 05:56:31;;;;;;;4.90;0.60;;;13.00;99.90;;;;;;4907208;29;20040;-83
2023/01/01 05:59:06;;;;;;;5.25;1.20;;;13.00;99.90;;;;;;4907783;29;20563;-85
2023/01/01 06:01:34;;;;;;;3.03;0.70;;;13.00;99.90;;;;;;4914422;29;20873;-84
2023/01/01 06:04:00;;;;;;;6.53;1.55;;;13.20;99.90;;;;;;4910427;29;20046;-84
2023/01/01 06:06:45;;;;;;;6.25;0.88;;;12.90;99.90;;;;;;4904627;29;20040;-84
2023/01/01 06:09:14;;;;;;;3.75;0.82;;;12.90;99.90;;;;;;4894897;29;20048;-84
2023/01/01 06:11:39;;;;;;;5.10;0.80;;;12.80;99.90;;;;;;4891149;29;20040;-84
2023/01/01 06:14:05;;;;;;;4.70;0.80;;;12.70;99.90;;;;;;4908378;29;20048;-84
2023/01/01 06:16:53;;;;;;;4.25;1.52;;;12.80;99.90;;;;;;4891017;29;20040;-84
2023/01/01 06:19:19;;;;;;;3.45;0.68;;;12.80;99.90;;;;;;4906058;29;20040;-84
2023/01/01 06:22:05;;;;;;;7.03;0.93;;;12.80;99.90;;;;;;4907184;29;20064;-83
2023/01/01 06:24:30;;;;;;;5.50;0.75;;;12.80;99.90;;;;;;4909099;29;20115;-84
2023/01/01 06:26:57;;;;;;;3.17;0.70;;;12.70;99.90;;;;;;4905039;29;20102;-84
2023/01/01 06:29:35;;;;;;;6.32;1.58;;;12.70;99.90;;;;;;4906659;29;20040;-84
2023/01/01 06:32:00;;;;;;;3.17;0.95;;;12.70;99.90;;;;;;4923488;29;20044;-84
2023/01/01 06:34:26;;;;;;;5.55;0.70;;;12.60;99.90;;;;;;4909766;29;20048;-84
2023/01/01 06:36:51;;;;;;;9.52;1.23;;;12.70;99.90;;;;;;4911224;29;20064;-84
2023/01/01 06:39:19;;;;;;;7.45;1.27;;;12.60;99.90;;;;;;4912306;29;20127;-84
2023/01/01 06:42:02;;;;;;;7.03;1.00;;;12.60;99.90;;;;;;4911004;29;20044;-84
2023/01/01 06:44:28;;;;;;;5.97;0.93;;;12.60;99.90;;;;;;4909609;29;20049;-84
2023/01/01 06:46:53;;;;;;;8.07;1.33;;;12.60;99.90;;;;;;4894873;29;20094;-84
2023/01/01 06:49:31;;;;;;;7.47;0.82;;;12.90;99.90;;;;;;4918838;29;20044;-85
2023/01/01 06:51:57;;;;;;;7.32;1.02;;;12.50;99.90;;;;;;4910428;29;20391;-84
2023/01/01 06:54:23;;;;;;;3.70;0.52;;;12.40;99.90;;;;;;4915680;29;20098;-84
2023/01/01 06:56:48;;;;;;;4.28;1.40;;;12.40;99.90;;;;;;4892495;29;20048;-84
2023/01/01 06:59:17;;;;;;;10.57;1.33;;;12.40;99.90;;;;;;4913781;29;20083;-84
2023/01/01 07:01:43;;;;;;;8.80;1.65;;;12.40;99.90;;;;;;4913256;29;20036;-83
2023/01/01 07:04:15;;;;;;;4.88;1.25;;;12.40;99.90;;;;;;4896575;29;20047;-84
2023/01/01 07:06:41;;;;;;;9.48;1.13;;;12.40;99.90;;;;;;4909418;29;20047;-84
2023/01/01 07:09:08;;;;;;;7.70;1.35;;;12.30;99.90;;;;;;4912383;29;20407;-84
2023/01/01 07:11:45;;;;;;;14.82;1.38;;;12.30;99.90;;;;;;4896334;29;20127;-84
2023/01/01 07:14:12;;;;;;;8.63;1.63;;;12.30;99.90;;;;;;4893797;29;20481;-84
2023/01/01 07:16:38;;;;;;;5.95;1.05;;;12.30;99.90;;;;;;4911498;29;20712;-83
2023/01/01 07:19:03;;;;;;;11.40;1.83;;;12.30;99.90;;;;;;4912076;29;20046;-83
2023/01/01 07:21:42;;;;;;;7.22;1.33;;;12.30;99.90;;;;;;4912266;29;20044;-83
2023/01/01 07:24:10;;;;;;;7.40;1.90;;;12.30;99.90;;;;;;4895194;29;20755;-84
2023/01/01 07:26:36;;;;;;;9.63;1.83;;;12.20;99.90;;;;;;4912661;29;20052;-84
2023/01/01 07:29:02;;;;;;;8.05;1.38;;;12.20;99.90;;;;;;4910473;29;20044;-84
2023/01/01 07:31:30;;;;;;;6.85;1.65;;;12.20;99.90;;;;;;4908232;29;20040;-83
2023/01/01 07:34:03;;;;;;;4.93;1.30;;;12.20;99.90;;;;;;4913221;29;20611;-84
2023/01/01 07:36:28;;;;;;;10.18;1.35;;;12.20;99.90;;;;;;4891895;29;20048;-84
2023/01/01 07:38:57;;;;;;;8.27;0.98;;;12.20;99.90;;;;;;4912488;29;20071;-84
2023/01/01 07:41:23;;;;;;;11.32;2.08;;;12.10;99.90;;;;;;4910889;29;20067;-84
2023/01/01 07:43:51;;;;;;;9.52;2.28;;;12.10;99.90;;;;;;4894146;29;20044;-84
2023/01/01 07:46:28;;;;;;;12.02;1.70;;;12.60;99.90;;;;;;4908963;29;20060;-84
2023/01/01 07:48:55;;;;;;;8.48;1.80;;;12.10;99.90;;;;;;4892432;29;20059;-84
2023/01/01 07:51:21;;;;;;;7.35;1.67;;;12.10;99.90;;;;;;4895892;29;20415;-83
2023/01/01 07:53:46;;;;;;;8.75;1.85;;;12.00;99.90;;;;;;4910571;29;20043;-83
2023/01/01 07:56:24;;;;;;;9.02;1.92;;;12.10;99.90;;;;;;4912850;29;20043;-84
2023/01/01 07:58:54;;;;;;;12.27;1.70;;;12.10;99.90;;;;;;4910330;29;20538;-84
2023/01/01 08:01:40;;;;;;;10.20;2.00;;;12.00;99.90;;;;;;4910213;29;20047;-84
2023/01/01 08:04:06;;;;;;;13.98;1.73;;;12.00;99.90;;;;;;4908157;29;20047;-83
2023/01/01 08:06:31;;;;;;;6.53;1.55;;;12.00;99.90;;;;;;4913820;29;20047;-83
2023/01/01 08:09:17;;;;;;;12.23;1.67;;;12.50;99.90;;;;;;4914722;29;20388;-84
2023/01/01 08:11:43;;;;;;;12.30;2.17;;;11.90;99.90;;;;;;4896179;29;20040;-84
2023/01/01 08:14:09;;;;;;;13.00;2.53;;;12.20;99.90;;;;;;4910787;29;20036;-84
2023/01/01 08:16:35;;;;;;;12.80;1.85;;;12.00;99.90;;;;;;4909777;29;20043;-84
2023/01/01 08:19:00;;;;;;;11.40;2.63;;;12.10;99.90;;;;;;4911992;29;20066;-84
2023/01/01 08:21:26;;;;;;;9.93;1.77;;;11.90;99.90;;;;;;4913136;29;20049;-83
2023/01/01 08:24:04;;;;;;;9.98;1.75;;;12.50;99.90;;;;;;4908701;29;20566;-85
2023/01/01 08:26:47;;;;;;;17.65;3.17;;;11.90;99.90;;;;;;4912784;29;20051;-87
2023/01/01 08:29:48;;;;;;;12.15;2.30;;;12.30;99.90;;;;;;4920276;29;20044;-88
2023/01/01 08:32:14;;;;;;;8.95;1.88;;;11.80;99.90;;;;;;4894052;29;20052;-87
2023/01/01 08:34:39;;;;;;;9.73;1.70;;;11.80;99.90;;;;;;4911369;29;20066;-87
2023/01/01 08:37:22;;;;;;;9.75;1.83;;;11.80;99.90;;;;;;4904879;29;20403;-85
2023/01/01 08:39:51;;;;;;;10.65;1.30;;;11.90;99.90;;;;;;4909438;29;20040;-88
2023/01/01 08:42:19;;;;;;;13.68;2.92;;;11.80;99.90;;;;;;4879576;29;20039;-88
2023/01/01 08:45:19;;;;;;;18.63;2.35;;;11.80;99.90;;;;;;4923734;29;20044;-88
2023/01/01 08:47:59;;;;;;;8.43;1.88;;;11.90;99.90;;;;;;4904078;29;20040;-87
2023/01/01 08:50:54;;;;;;;13.00;2.50;;;11.90;99.90;;;;;;4904873;29;20564;-88
2023/01/01 08:53:22;;;;;;;11.10;1.67;;;11.80;99.90;;;;;;4910352;29;20044;-88
2023/01/01 08:56:15;;;;;;;7.03;1.38;;;11.80;99.90;;;;;;4916621;29;20067;-87
2023/01/01 08:59:05;;;;;;;16.58;2.15;;;11.80;99.90;;;;;;4844370;29;20106;-88
2023/01/01 09:01:35;;;;;;;11.20;1.52;;;11.70;99.90;;;;;;4909172;29;20499;-88
2023/01/01 09:04:22;;;;;;;8.75;1.55;;;11.70;99.90;;;;;;4911399;29;20111;-86
2023/01/01 09:06:49;;;;;;;14.50;1.60;;;11.80;99.90;;;;;;4890540;29;20077;-88
2023/01/01 09:10:15;;;;;;;6.85;1.63;;;11.80;99.90;;;;;;4920392;29;20133;-86
2023/01/01 09:12:40;;;;;;;8.15;1.83;;;11.80;99.90;;;;;;4906810;29;20040;-87
2023/01/01 09:15:20;;;;;;;9.52;1.92;;;11.70;99.90;;;;;;4892732;29;20043;-87
2023/01/01 09:17:58;;;;;;;5.78;0.98;;;11.70;99.90;;;;;;4907708;29;20693;-87
2023/01/01 09:20:24;;;;;;;13.07;2.92;;;11.70;99.90;;;;;;4924101;29;20675;-88
2023/01/01 09:23:11;;;;;;;13.88;1.90;;;11.80;99.90;;;;;;4895540;29;20039;-87
2023/01/01 09:25:44;;;;;;;12.18;1.75;;;11.70;99.90;;;;;;4908616;29;20051;-87
2023/01/01 09:28:28;;;;;;;13.50;2.10;;;12.20;99.90;;;;;;4907796;29;20685;-87
2023/01/01 09:30:54;;;;;;;9.02;1.67;;;11.80;99.90;;;;;;4908897;29;20060;-88
2023/01/01 09:33:24;;;;;;;9.48;1.45;;;11.70;99.90;;;;;;4909249;29;20491;-87
2023/01/01 09:36:15;;;;;;;6.22;1.27;;;11.80;99.90;;;;;;4892953;29;20040;-89
2023/01/01 09:39:20;;;;;;;13.20;2.97;;;11.70;99.90;;;;;;4909218;29;20139;-86
2023/01/01 09:42:05;;;;;;;12.90;2.53;;;11.40;99.90;;;;;;4908986;29;20040;-86
2023/01/01 09:45:24;;;;;;;13.57;2.38;;;11.50;99.90;;;;;;4919315;29;20044;-85
2023/01/01 09:47:57;;;;;;;14.07;1.85;;;12.60;99.90;;;;;;4914960;29;20063;-85
2023/01/01 09:50:31;;;;;;;11.75;3.10;;;11.80;99.90;;;;;;4894455;29;20446;-85
2023/01/01 09:53:02;;;;;;;14.35;2.53;;;11.90;99.90;;;;;;4879532;29;20040;-86
2023/01/01 09:55:46;;;;;;;13.80;2.70;;;11.80;99.90;;;;;;4906606;29;20092;-86
2023/01/01 09:58:12;;;;;;;14.95;1.92;;;11.80;99.90;;;;;;4910802;29;20041;-85
2023/01/01 10:00:43;;;;;;;10.55;1.77;;;11.80;99.90;;;;;;4907401;29;20032;-84
2023/01/01 10:03:21;;;;;;;11.95;1.52;;;11.80;99.90;;;;;;4893051;29;20043;-85
2023/01/01 10:06:00;;;;;;;10.05;1.75;;;11.90;99.90;;;;;;4910257;29;20076;-84
2023/01/01 10:08:59;;;;;;;13.25;1.67;;;11.90;99.90;;;;;;4893962;29;20053;-84
2023/01/01 10:11:51;;;;;;;8.25;1.52;;;11.80;99.90;;;;;;4895105;29;20076;-84
2023/01/01 10:14:27;;;;;;;9.90;1.80;;;11.80;99.90;;;;;;4896348;29;20059;-86
2023/01/01 10:16:55;;;;;;;9.20;1.45;;;11.70;99.90;;;;;;4913928;29;20048;-84
2023/01/01 10:19:54;;;;;;;12.18;1.98;;;11.60;99.90;;;;;;4899580;29;20036;-86
2023/01/01 10:22:25;;;;;;;13.85;1.77;;;11.70;99.90;;;;;;4895063;29;20123;-84
2023/01/01 10:24:58;;;;;;;9.07;1.42;;;11.70;99.90;;;;;;4916321;29;20783;-83
2023/01/01 10:27:48;;;;;;;12.77;1.52;;;11.70;99.90;;;;;;4916476;29;20479;-83
2023/01/01 10:30:20;;;;;;;9.27;2.25;;;11.70;99.90;;;;;;4900431;29;20108;-84
2023/01/01 10:32:52;;;;;;;8.90;1.73;;;11.80;99.90;;;;;;4897642;29;20044;-84
2023/01/01 10:35:21;;;;;;;11.20;2.10;;;11.90;99.90;;;;;;4897737;29;20048;-84
2023/01/01 10:37:48;;;;;;;11.60;1.58;;;11.90;99.90;;;;;;4915087;29;20584;-84
2023/01/01 10:40:26;;;;;;;9.00;1.45;;;12.00;99.90;;;;;;4914858;29;20032;-83
2023/01/01 10:42:57;;;;;;;11.57;2.05;;;12.00;99.90;;;;;;4911840;29;20036;-84
2023/01/01 10:45:35;;;;;;;10.40;1.52;;;12.10;99.90;;;;;;4916170;29;20495;-83
2023/01/01 10:48:29;;;;;;;14.07;2.17;;;13.10;99.90;;;;;;4909767;29;20044;-85
2023/01/01 10:51:05;;;;;;;11.93;1.65;;;12.20;99.90;;;;;;4891671;29;21031;-84
2023/01/01 10:53:35;;;;;;;7.45;1.52;;;12.20;99.90;;;;;;4897075;29;20919;-85
2023/01/01 10:56:12;;;;;;;10.13;1.50;;;12.30;99.90;;;;;;4914811;29;20075;-84
2023/01/01 10:58:55;;;;;;;10.52;2.13;;;12.30;99.90;;;;;;4914549;29;20077;-84
2023/01/01 11:01:32;;;;;;;11.77;2.05;;;12.40;99.90;;;;;;4929701;29;20028;-84
2023/01/01 11:04:18;;;;;;;11.43;1.73;;;12.30;99.90;;;;;;4912926;29;20036;-84
2023/01/01 11:06:50;;;;;;;12.07;1.73;;;12.30;99.90;;;;;;4913590;29;20052;-84
2023/01/01 11:09:35;;;;;;;8.82;1.60;;;12.30;99.90;;;;;;4932139;29;20602;-84
2023/01/01 11:12:14;;;;;;;12.13;3.00;;;12.30;99.90;;;;;;4920375;29;20063;-84
2023/01/01 11:14:46;;;;;;;12.93;2.03;;;12.30;99.90;;;;;;4932288;29;20166;-84
2023/01/01 11:17:22;;;;;;;12.43;1.88;;;12.30;99.90;;;;;;4931781;29;21010;-84
2023/01/01 11:19:49;;;;;;;14.15;2.60;;;12.40;99.90;;;;;;4910696;29;20044;-84
2023/01/01 11:22:56;;;;;;;15.82;2.75;;;12.90;99.90;;;;;;4909170;29;20036;-86
2023/01/01 11:25:32;;;;;;;9.15;2.30;;;12.20;99.90;;;;;;4843435;29;20048;-84
2023/01/01 11:28:33;;;;;;;11.38;1.73;;;12.20;99.90;;;;;;4860251;29;20041;-83
2023/01/01 11:31:03;;;;;;;12.07;1.73;;;12.20;99.90;;;;;;4889326;29;20080;-83
2023/01/01 11:33:33;;;;;;;12.65;2.53;;;12.20;99.90;;;;;;4908656;29;20097;-82
2023/01/01 11:35:59;;;;;;;14.60;2.50;;;12.20;99.90;;;;;;4894516;29;20040;-83
2023/01/01 11:38:25;;;;;;;12.60;1.98;;;12.30;99.90;;;;;;4916002;29;20036;-82
2023/01/01 11:40:54;;;;;;;14.30;1.65;;;12.30;99.90;;;;;;4916249;29;20483;-84
2023/01/01 11:43:42;;;;;;;13.10;2.55;;;12.30;99.90;;;;;;4910052;29;20036;-86
2023/01/01 11:46:12;;;;;;;11.10;1.75;;;12.30;99.90;;;;;;4913654;29;20047;-85
2023/01/01 11:48:55;;;;;;;10.38;1.60;;;12.30;99.90;;;;;;4895981;29;20099;-86
2023/01/01 11:51:30;;;;;;;10.10;2.03;;;12.30;99.90;;;;;;4893663;29;20063;-84
2023/01/01 11:54:22;;;;;;;14.10;2.20;;;12.40;99.90;;;;;;4910248;29;20143;-84
2023/01/01 11:56:59;;;;;;;7.78;1.73;;;12.40;99.90;;;;;;4899193;29;20048;-86
2023/01/01 11:59:37;;;;;;;15.25;2.50;;;12.40;99.90;;;;;;4925283;29;20400;-85
2023/01/01 12:02:08;;;;;;;9.55;1.60;;;12.40;99.90;;;;;;4911206;29;20036;-85
2023/01/01 12:04:56;;;;;;;11.85;2.65;;;12.60;99.90;;;;;;4913422;29;20048;-85
2023/01/01 12:07:29;;;;;;;10.65;2.22;;;12.70;99.90;;;;;;4900043;29;20072;-83
2023/01/01 12:10:40;;;;;;;13.23;2.42;;;12.80;99.90;;;;;;4900224;29;20505;-85
2023/01/01 12:13:19;;;;;;;9.57;1.80;;;12.90;99.90;;;;;;4895316;29;20395;-81
2023/01/01 12:15:49;;;;;;;9.70;1.83;;;12.80;99.90;;;;;;4927267;29;20558;-81
2023/01/01 12:18:26;;;;;;;14.93;3.33;;;12.80;99.90;;;;;;4898578;29;20091;-82
2023/01/01 12:20:58;;;;;;;13.60;1.77;;;12.70;99.90;;;;;;4910752;29;20064;-83
2023/01/01 12:23:34;;;;;;;14.52;2.60;;;12.60;99.90;;;;;;4895030;29;20092;-83
2023/01/01 12:26:16;;;;;;;11.60;2.38;;;12.60;99.90;;;;;;4913887;29;20478;-85
2023/01/01 12:28:54;;;;;;;12.85;2.15;;;13.20;99.90;;;;;;4913911;29;20039;-81
2023/01/01 12:31:43;;;;;;;16.30;3.00;;;12.50;99.90;;;;;;4901656;29;20048;-83
2023/01/01 12:34:43;;;;;;;11.98;2.42;;;12.50;99.90;;;;;;4899929;29;20060;-83
2023/01/01 12:37:12;;;;;;;8.07;1.75;;;12.50;99.90;;;;;;4893176;29;20048;-82
2023/01/01 12:44:08;;;;;;;11.02;1.38;;;12.40;99.90;;;;;;4910814;29;20439;-85
2023/01/01 12:47:09;;;;;;;11.70;1.90;;;12.40;99.90;;;;;;4897774;29;20056;-85
2023/01/01 12:49:58;;;;;;;13.65;1.73;;;12.40;99.90;;;;;;4896239;29;20056;-83
2023/01/01 12:52:26;;;;;;;12.82;2.15;;;12.10;99.90;;;;;;4895153;29;20047;-82
2023/01/01 12:55:19;;;;;;;12.32;3.25;;;12.30;99.90;;;;;;4905580;29;20062;-82
2023/01/01 12:58:17;;;;;;;11.77;2.20;;;12.40;99.90;;;;;;4896215;28;20040;-83
2023/01/01 13:01:10;;;;;;;9.38;1.90;;;12.30;99.90;;;;;;4902494;29;20059;-81
2023/01/01 13:03:59;;;;;;;14.25;2.85;;;12.30;99.90;;;;;;4902060;29;20056;-83
2023/01/01 13:06:45;;;;;;;18.55;2.28;;;12.30;99.90;;;;;;4909422;29;20119;-82
2023/01/01 13:09:17;;;;;;;8.13;1.80;;;12.30;99.90;;;;;;4925683;29;20147;-83
2023/01/01 13:11:46;;;;;;;9.82;1.85;;;12.30;99.90;;;;;;4893094;29;20500;-83
2023/01/01 13:14:13;;;;;;;15.45;3.65;;;12.20;99.90;;;;;;4895978;29;20107;-86
2023/01/01 13:17:00;;;;;;;11.27;2.35;;;12.20;99.90;;;;;;4911641;29;20550;-84
2023/01/01 13:20:28;;;;;;;13.13;1.75;;;12.20;99.90;;;;;;4860750;29;20158;-85
2023/01/01 13:23:00;;;;;;;13.65;2.40;;;12.30;99.90;;;;;;4851535;29;20582;-85
2023/01/01 13:25:29;;;;;;;14.95;3.25;;;12.30;99.90;;;;;;4901858;29;20148;-83
2023/01/01 13:28:48;;;;;;;12.82;2.63;;;12.20;99.90;;;;;;4914508;29;20044;-85